sensor_id;sensor_type;location;lat;lon;timestamp;P1;durP1;ratioP1;P2;durP2;ratioP2
33357;SDS011;19717;42.614;23.418;2022-07-29T00:02:05;14.43;;;7.25;;
33357;SDS011;19717;42.614;23.418;2022-07-29T00:04:33;10.70;;;7.53;;
33357;SDS011;19717;42.614;23.418;2022-07-29T00:06:59;13.40;;;7.80;;
33357;SDS011;19717;42.614;23.418;2022-07-29T00:09:25;13.02;;;7.43;;
33357;SDS011;19717;42.614;23.418;2022-07-29T00:11:51;14.05;;;7.72;;
33357;SDS011;19717;42.614;23.418;2022-07-29T00:14:17;13.02;;;8.00;;
33357;SDS011;19717;42.614;23.418;2022-07-29T00:16:44;11.55;;;7.63;;
33357;SDS011;19717;42.614;23.418;2022-07-29T00:19:10;13.50;;;8.30;;
33357;SDS011;19717;42.614;23.418;2022-07-29T00:21:36;13.40;;;8.20;;
33357;SDS011;19717;42.614;23.418;2022-07-29T00:24:02;11.43;;;7.78;;
33357;SDS011;19717;42.614;23.418;2022-07-29T00:26:28;16.48;;;8.40;;
33357;SDS011;19717;42.614;23.418;2022-07-29T00:29:00;19.27;;;8.15;;
33357;SDS011;19717;42.614;23.418;2022-07-29T00:31:27;15.23;;;7.68;;
33357;SDS011;19717;42.614;23.418;2022-07-29T00:33:53;10.15;;;7.40;;
33357;SDS011;19717;42.614;23.418;2022-07-29T00:36:19;14.65;;;7.88;;
33357;SDS011;19717;42.614;23.418;2022-07-29T00:38:51;12.40;;;7.72;;
33357;SDS011;19717;42.614;23.418;2022-07-29T00:41:18;11.55;;;8.20;;
33357;SDS011;19717;42.614;23.418;2022-07-29T00:43:44;16.98;;;8.02;;
33357;SDS011;19717;42.614;23.418;2022-07-29T00:46:11;12.52;;;8.35;;
33357;SDS011;19717;42.614;23.418;2022-07-29T00:48:37;15.70;;;8.27;;
33357;SDS011;19717;42.614;23.418;2022-07-29T00:51:03;13.43;;;8.25;;
33357;SDS011;19717;42.614;23.418;2022-07-29T00:53:30;12.30;;;7.90;;
33357;SDS011;19717;42.614;23.418;2022-07-29T00:55:56;14.55;;;9.13;;
33357;SDS011;19717;42.614;23.418;2022-07-29T00:58:23;12.93;;;8.32;;
33357;SDS011;19717;42.614;23.418;2022-07-29T01:00:49;15.68;;;8.10;;
33357;SDS011;19717;42.614;23.418;2022-07-29T01:03:15;11.13;;;7.72;;
33357;SDS011;19717;42.614;23.418;2022-07-29T01:05:42;11.90;;;8.57;;
33357;SDS011;19717;42.614;23.418;2022-07-29T01:08:08;12.65;;;7.88;;
33357;SDS011;19717;42.614;23.418;2022-07-29T01:10:37;15.82;;;7.95;;
33357;SDS011;19717;42.614;23.418;2022-07-29T01:13:04;11.57;;;7.53;;
33357;SDS011;19717;42.614;23.418;2022-07-29T01:15:30;10.82;;;8.02;;
33357;SDS011;19717;42.614;23.418;2022-07-29T01:25:52;10.57;;;7.32;;
33357;SDS011;19717;42.614;23.418;2022-07-29T01:30:58;11.20;;;7.47;;
33357;SDS011;19717;42.614;23.418;2022-07-29T01:33:25;18.10;;;7.55;;
33357;SDS011;19717;42.614;23.418;2022-07-29T01:36:12;12.48;;;7.65;;
33357;SDS011;19717;42.614;23.418;2022-07-29T01:38:39;11.90;;;7.80;;
33357;SDS011;19717;42.614;23.418;2022-07-29T01:41:08;12.27;;;7.45;;
33357;SDS011;19717;42.614;23.418;2022-07-29T01:43:37;11.80;;;7.15;;
33357;SDS011;19717;42.614;23.418;2022-07-29T01:46:05;13.00;;;7.32;;
33357;SDS011;19717;42.614;23.418;2022-07-29T01:48:55;14.80;;;7.82;;
33357;SDS011;19717;42.614;23.418;2022-07-29T01:51:20;11.23;;;7.38;;
33357;SDS011;19717;42.614;23.418;2022-07-29T01:53:52;15.55;;;8.15;;
33357;SDS011;19717;42.614;23.418;2022-07-29T01:56:20;11.60;;;7.50;;
33357;SDS011;19717;42.614;23.418;2022-07-29T01:58:48;11.48;;;7.60;;
33357;SDS011;19717;42.614;23.418;2022-07-29T02:01:15;12.13;;;7.82;;
33357;SDS011;19717;42.614;23.418;2022-07-29T02:03:42;11.40;;;6.82;;
33357;SDS011;19717;42.614;23.418;2022-07-29T02:06:09;13.10;;;7.65;;
33357;SDS011;19717;42.614;23.418;2022-07-29T02:08:36;12.48;;;7.13;;
33357;SDS011;19717;42.614;23.418;2022-07-29T02:11:04;11.82;;;7.65;;
33357;SDS011;19717;42.614;23.418;2022-07-29T02:13:30;10.02;;;7.03;;
33357;SDS011;19717;42.614;23.418;2022-07-29T02:15:57;14.25;;;8.45;;
33357;SDS011;19717;42.614;23.418;2022-07-29T02:18:24;12.57;;;7.88;;
33357;SDS011;19717;42.614;23.418;2022-07-29T02:20:53;12.48;;;8.35;;
33357;SDS011;19717;42.614;23.418;2022-07-29T02:23:23;13.27;;;7.70;;
33357;SDS011;19717;42.614;23.418;2022-07-29T02:25:49;10.20;;;6.95;;
33357;SDS011;19717;42.614;23.418;2022-07-29T02:28:17;10.93;;;7.18;;
33357;SDS011;19717;42.614;23.418;2022-07-29T02:30:44;10.80;;;7.40;;
33357;SDS011;19717;42.614;23.418;2022-07-29T02:33:12;9.88;;;6.88;;
33357;SDS011;19717;42.614;23.418;2022-07-29T02:35:38;8.65;;;6.53;;
33357;SDS011;19717;42.614;23.418;2022-07-29T02:38:05;9.45;;;6.20;;
33357;SDS011;19717;42.614;23.418;2022-07-29T02:40:51;7.68;;;5.75;;
33357;SDS011;19717;42.614;23.418;2022-07-29T02:43:18;8.65;;;6.32;;
33357;SDS011;19717;42.614;23.418;2022-07-29T02:45:46;9.52;;;6.25;;
33357;SDS011;19717;42.614;23.418;2022-07-29T02:48:13;7.28;;;5.13;;
33357;SDS011;19717;42.614;23.418;2022-07-29T02:50:43;10.68;;;6.28;;
33357;SDS011;19717;42.614;23.418;2022-07-29T02:53:17;9.52;;;6.00;;
33357;SDS011;19717;42.614;23.418;2022-07-29T02:58:29;10.02;;;6.32;;
33357;SDS011;19717;42.614;23.418;2022-07-29T03:00:56;10.23;;;6.45;;
33357;SDS011;19717;42.614;23.418;2022-07-29T03:03:25;8.18;;;5.10;;
33357;SDS011;19717;42.614;23.418;2022-07-29T03:05:56;6.25;;;4.30;;
33357;SDS011;19717;42.614;23.418;2022-07-29T03:08:22;6.05;;;4.60;;
33357;SDS011;19717;42.614;23.418;2022-07-29T03:10:49;6.45;;;4.47;;
33357;SDS011;19717;42.614;23.418;2022-07-29T03:13:16;6.03;;;4.70;;
33357;SDS011;19717;42.614;23.418;2022-07-29T03:15:42;10.38;;;5.88;;
33357;SDS011;19717;42.614;23.418;2022-07-29T03:18:09;10.43;;;6.95;;
33357;SDS011;19717;42.614;23.418;2022-07-29T03:20:36;12.65;;;7.85;;
33357;SDS011;19717;42.614;23.418;2022-07-29T03:23:03;12.43;;;7.95;;
33357;SDS011;19717;42.614;23.418;2022-07-29T03:25:29;11.50;;;7.72;;
33357;SDS011;19717;42.614;23.418;2022-07-29T03:27:55;10.98;;;7.85;;
33357;SDS011;19717;42.614;23.418;2022-07-29T03:30:22;11.52;;;7.90;;
33357;SDS011;19717;42.614;23.418;2022-07-29T03:32:49;13.73;;;8.02;;
33357;SDS011;19717;42.614;23.418;2022-07-29T03:35:15;11.45;;;8.20;;
33357;SDS011;19717;42.614;23.418;2022-07-29T03:37:42;15.68;;;9.63;;
33357;SDS011;19717;42.614;23.418;2022-07-29T03:40:08;12.43;;;8.45;;
33357;SDS011;19717;42.614;23.418;2022-07-29T03:42:36;14.75;;;9.00;;
33357;SDS011;19717;42.614;23.418;2022-07-29T03:45:05;14.90;;;8.80;;
33357;SDS011;19717;42.614;23.418;2022-07-29T03:47:32;13.13;;;8.57;;
33357;SDS011;19717;42.614;23.418;2022-07-29T03:50:02;14.73;;;9.05;;
33357;SDS011;19717;42.614;23.418;2022-07-29T03:52:30;16.15;;;9.00;;
33357;SDS011;19717;42.614;23.418;2022-07-29T03:54:56;16.90;;;8.85;;
33357;SDS011;19717;42.614;23.418;2022-07-29T03:57:27;13.30;;;8.45;;
33357;SDS011;19717;42.614;23.418;2022-07-29T03:59:54;17.23;;;9.30;;
33357;SDS011;19717;42.614;23.418;2022-07-29T04:02:20;18.10;;;10.27;;
33357;SDS011;19717;42.614;23.418;2022-07-29T04:04:47;13.93;;;8.57;;
33357;SDS011;19717;42.614;23.418;2022-07-29T04:07:14;15.63;;;8.80;;
33357;SDS011;19717;42.614;23.418;2022-07-29T04:09:41;12.52;;;8.55;;
33357;SDS011;19717;42.614;23.418;2022-07-29T04:12:07;17.48;;;8.73;;
33357;SDS011;19717;42.614;23.418;2022-07-29T04:14:33;15.77;;;8.52;;
33357;SDS011;19717;42.614;23.418;2022-07-29T04:17:03;13.27;;;7.97;;
33357;SDS011;19717;42.614;23.418;2022-07-29T04:19:29;13.90;;;8.80;;
33357;SDS011;19717;42.614;23.418;2022-07-29T04:21:56;11.43;;;8.05;;
33357;SDS011;19717;42.614;23.418;2022-07-29T04:24:23;12.13;;;8.00;;
33357;SDS011;19717;42.614;23.418;2022-07-29T04:26:49;12.05;;;7.72;;
33357;SDS011;19717;42.614;23.418;2022-07-29T04:29:15;9.68;;;6.40;;
33357;SDS011;19717;42.614;23.418;2022-07-29T04:31:41;11.10;;;7.47;;
33357;SDS011;19717;42.614;23.418;2022-07-29T04:34:07;10.40;;;7.32;;
33357;SDS011;19717;42.614;23.418;2022-07-29T04:36:34;10.95;;;7.50;;
33357;SDS011;19717;42.614;23.418;2022-07-29T04:39:00;15.82;;;8.52;;
33357;SDS011;19717;42.614;23.418;2022-07-29T04:41:26;15.27;;;9.63;;
33357;SDS011;19717;42.614;23.418;2022-07-29T04:43:52;17.00;;;10.50;;
33357;SDS011;19717;42.614;23.418;2022-07-29T04:46:18;15.68;;;10.38;;
33357;SDS011;19717;42.614;23.418;2022-07-29T04:48:45;15.38;;;10.18;;
33357;SDS011;19717;42.614;23.418;2022-07-29T04:51:12;16.25;;;9.85;;
33357;SDS011;19717;42.614;23.418;2022-07-29T04:53:38;15.10;;;9.93;;
33357;SDS011;19717;42.614;23.418;2022-07-29T04:56:04;14.10;;;9.40;;
33357;SDS011;19717;42.614;23.418;2022-07-29T04:58:30;18.08;;;10.63;;
33357;SDS011;19717;42.614;23.418;2022-07-29T05:00:56;18.73;;;10.18;;
33357;SDS011;19717;42.614;23.418;2022-07-29T05:03:22;17.20;;;10.10;;
33357;SDS011;19717;42.614;23.418;2022-07-29T05:05:48;13.02;;;9.05;;
33357;SDS011;19717;42.614;23.418;2022-07-29T05:08:14;15.73;;;8.77;;
33357;SDS011;19717;42.614;23.418;2022-07-29T05:10:40;12.75;;;8.52;;
33357;SDS011;19717;42.614;23.418;2022-07-29T05:13:07;10.88;;;7.88;;
33357;SDS011;19717;42.614;23.418;2022-07-29T05:15:33;11.45;;;8.18;;
33357;SDS011;19717;42.614;23.418;2022-07-29T05:18:00;11.38;;;7.60;;
33357;SDS011;19717;42.614;23.418;2022-07-29T05:20:26;13.40;;;7.53;;
33357;SDS011;19717;42.614;23.418;2022-07-29T05:22:57;12.32;;;8.57;;
33357;SDS011;19717;42.614;23.418;2022-07-29T05:25:26;14.00;;;7.85;;
33357;SDS011;19717;42.614;23.418;2022-07-29T05:27:53;11.45;;;7.53;;
33357;SDS011;19717;42.614;23.418;2022-07-29T05:30:19;13.27;;;7.80;;
33357;SDS011;19717;42.614;23.418;2022-07-29T05:32:46;11.20;;;8.15;;
33357;SDS011;19717;42.614;23.418;2022-07-29T05:35:12;13.15;;;8.07;;
33357;SDS011;19717;42.614;23.418;2022-07-29T05:37:39;11.02;;;7.60;;
33357;SDS011;19717;42.614;23.418;2022-07-29T05:40:05;15.23;;;8.00;;
33357;SDS011;19717;42.614;23.418;2022-07-29T05:42:32;9.68;;;6.20;;
33357;SDS011;19717;42.614;23.418;2022-07-29T05:44:59;10.82;;;7.43;;
33357;SDS011;19717;42.614;23.418;2022-07-29T05:47:25;12.77;;;6.75;;
33357;SDS011;19717;42.614;23.418;2022-07-29T05:49:51;12.70;;;7.75;;
33357;SDS011;19717;42.614;23.418;2022-07-29T05:52:17;12.73;;;7.32;;
33357;SDS011;19717;42.614;23.418;2022-07-29T05:54:43;10.88;;;7.20;;
33357;SDS011;19717;42.614;23.418;2022-07-29T05:57:16;11.63;;;7.10;;
33357;SDS011;19717;42.614;23.418;2022-07-29T05:59:42;8.60;;;6.32;;
33357;SDS011;19717;42.614;23.418;2022-07-29T06:02:08;13.32;;;6.70;;
33357;SDS011;19717;42.614;23.418;2022-07-29T06:04:34;14.60;;;7.45;;
33357;SDS011;19717;42.614;23.418;2022-07-29T06:07:00;9.75;;;6.70;;
33357;SDS011;19717;42.614;23.418;2022-07-29T06:09:27;10.13;;;5.63;;
33357;SDS011;19717;42.614;23.418;2022-07-29T06:11:53;9.63;;;6.97;;
33357;SDS011;19717;42.614;23.418;2022-07-29T06:14:19;9.55;;;6.32;;
33357;SDS011;19717;42.614;23.418;2022-07-29T06:16:45;10.80;;;6.72;;
33357;SDS011;19717;42.614;23.418;2022-07-29T06:19:11;8.38;;;6.35;;
33357;SDS011;19717;42.614;23.418;2022-07-29T06:21:41;8.73;;;5.90;;
33357;SDS011;19717;42.614;23.418;2022-07-29T06:24:08;9.68;;;6.25;;
33357;SDS011;19717;42.614;23.418;2022-07-29T06:26:34;8.35;;;6.45;;
33357;SDS011;19717;42.614;23.418;2022-07-29T06:29:00;8.07;;;5.75;;
33357;SDS011;19717;42.614;23.418;2022-07-29T06:31:26;6.53;;;4.80;;
33357;SDS011;19717;42.614;23.418;2022-07-29T06:33:52;8.93;;;4.97;;
33357;SDS011;19717;42.614;23.418;2022-07-29T06:36:18;8.88;;;5.40;;
33357;SDS011;19717;42.614;23.418;2022-07-29T06:38:44;6.20;;;4.72;;
33357;SDS011;19717;42.614;23.418;2022-07-29T06:41:11;7.38;;;5.03;;
33357;SDS011;19717;42.614;23.418;2022-07-29T06:43:41;5.95;;;4.70;;
33357;SDS011;19717;42.614;23.418;2022-07-29T06:46:09;7.15;;;4.53;;
33357;SDS011;19717;42.614;23.418;2022-07-29T06:48:36;6.45;;;5.20;;
33357;SDS011;19717;42.614;23.418;2022-07-29T06:51:02;9.43;;;5.28;;
33357;SDS011;19717;42.614;23.418;2022-07-29T06:53:29;9.98;;;4.80;;
33357;SDS011;19717;42.614;23.418;2022-07-29T06:55:55;9.75;;;5.15;;
33357;SDS011;19717;42.614;23.418;2022-07-29T06:58:23;5.50;;;4.53;;
33357;SDS011;19717;42.614;23.418;2022-07-29T07:00:49;7.00;;;4.90;;
33357;SDS011;19717;42.614;23.418;2022-07-29T07:03:15;6.85;;;4.38;;
33357;SDS011;19717;42.614;23.418;2022-07-29T07:05:42;5.07;;;4.13;;
33357;SDS011;19717;42.614;23.418;2022-07-29T07:08:08;5.65;;;4.55;;
33357;SDS011;19717;42.614;23.418;2022-07-29T07:10:34;5.97;;;4.60;;
33357;SDS011;19717;42.614;23.418;2022-07-29T07:13:01;5.30;;;4.35;;
33357;SDS011;19717;42.614;23.418;2022-07-29T07:15:27;4.82;;;4.32;;
33357;SDS011;19717;42.614;23.418;2022-07-29T07:17:53;5.57;;;4.38;;
33357;SDS011;19717;42.614;23.418;2022-07-29T07:20:19;5.18;;;4.28;;
33357;SDS011;19717;42.614;23.418;2022-07-29T07:22:45;4.65;;;3.78;;
33357;SDS011;19717;42.614;23.418;2022-07-29T07:25:12;4.15;;;3.75;;
33357;SDS011;19717;42.614;23.418;2022-07-29T07:27:38;6.78;;;3.20;;
33357;SDS011;19717;42.614;23.418;2022-07-29T07:30:05;4.50;;;3.67;;
33357;SDS011;19717;42.614;23.418;2022-07-29T07:32:34;4.13;;;3.50;;
33357;SDS011;19717;42.614;23.418;2022-07-29T07:35:00;3.97;;;3.42;;
33357;SDS011;19717;42.614;23.418;2022-07-29T07:37:27;3.95;;;3.30;;
33357;SDS011;19717;42.614;23.418;2022-07-29T07:39:53;4.03;;;3.42;;
33357;SDS011;19717;42.614;23.418;2022-07-29T07:42:19;5.85;;;3.50;;
33357;SDS011;19717;42.614;23.418;2022-07-29T07:44:45;3.90;;;3.50;;
33357;SDS011;19717;42.614;23.418;2022-07-29T07:47:13;3.55;;;3.25;;
33357;SDS011;19717;42.614;23.418;2022-07-29T07:49:39;4.35;;;3.63;;
33357;SDS011;19717;42.614;23.418;2022-07-29T07:52:05;4.75;;;3.30;;
33357;SDS011;19717;42.614;23.418;2022-07-29T07:54:31;3.83;;;3.00;;
33357;SDS011;19717;42.614;23.418;2022-07-29T07:56:57;3.50;;;3.20;;
33357;SDS011;19717;42.614;23.418;2022-07-29T07:59:23;3.42;;;2.83;;
33357;SDS011;19717;42.614;23.418;2022-07-29T08:01:49;7.10;;;3.20;;
33357;SDS011;19717;42.614;23.418;2022-07-29T08:04:16;3.20;;;2.90;;
33357;SDS011;19717;42.614;23.418;2022-07-29T08:06:42;3.55;;;3.05;;
33357;SDS011;19717;42.614;23.418;2022-07-29T08:09:08;3.47;;;3.15;;
33357;SDS011;19717;42.614;23.418;2022-07-29T08:11:34;3.30;;;2.95;;
33357;SDS011;19717;42.614;23.418;2022-07-29T08:14:00;4.63;;;3.10;;
33357;SDS011;19717;42.614;23.418;2022-07-29T08:16:27;3.05;;;2.78;;
33357;SDS011;19717;42.614;23.418;2022-07-29T08:18:53;4.90;;;2.95;;
33357;SDS011;19717;42.614;23.418;2022-07-29T08:21:22;3.53;;;2.90;;
33357;SDS011;19717;42.614;23.418;2022-07-29T08:23:48;3.22;;;2.67;;
33357;SDS011;19717;42.614;23.418;2022-07-29T08:26:17;3.03;;;2.80;;
33357;SDS011;19717;42.614;23.418;2022-07-29T08:28:44;3.13;;;2.83;;
33357;SDS011;19717;42.614;23.418;2022-07-29T08:31:10;4.20;;;3.03;;
33357;SDS011;19717;42.614;23.418;2022-07-29T08:33:37;2.97;;;2.78;;
33357;SDS011;19717;42.614;23.418;2022-07-29T08:36:03;2.80;;;2.60;;
33357;SDS011;19717;42.614;23.418;2022-07-29T08:38:29;3.22;;;2.92;;
33357;SDS011;19717;42.614;23.418;2022-07-29T08:40:55;4.15;;;3.08;;
33357;SDS011;19717;42.614;23.418;2022-07-29T08:43:21;3.17;;;2.88;;
33357;SDS011;19717;42.614;23.418;2022-07-29T08:45:48;3.08;;;2.53;;
33357;SDS011;19717;42.614;23.418;2022-07-29T08:48:15;3.30;;;3.00;;
33357;SDS011;19717;42.614;23.418;2022-07-29T08:50:42;3.53;;;2.95;;
33357;SDS011;19717;42.614;23.418;2022-07-29T08:53:12;5.55;;;3.60;;
33357;SDS011;19717;42.614;23.418;2022-07-29T08:55:40;4.30;;;3.22;;
33357;SDS011;19717;42.614;23.418;2022-07-29T08:58:06;4.80;;;3.40;;
33357;SDS011;19717;42.614;23.418;2022-07-29T09:00:32;4.18;;;3.35;;
33357;SDS011;19717;42.614;23.418;2022-07-29T09:03:00;3.90;;;3.38;;
33357;SDS011;19717;42.614;23.418;2022-07-29T09:05:27;3.33;;;2.92;;
33357;SDS011;19717;42.614;23.418;2022-07-29T09:07:53;3.53;;;3.20;;
33357;SDS011;19717;42.614;23.418;2022-07-29T09:10:20;3.67;;;3.35;;
33357;SDS011;19717;42.614;23.418;2022-07-29T09:12:46;4.20;;;3.50;;
33357;SDS011;19717;42.614;23.418;2022-07-29T09:15:13;4.47;;;3.40;;
33357;SDS011;19717;42.614;23.418;2022-07-29T09:17:43;3.72;;;3.22;;
33357;SDS011;19717;42.614;23.418;2022-07-29T09:20:10;3.85;;;3.35;;
33357;SDS011;19717;42.614;23.418;2022-07-29T09:22:36;4.18;;;3.35;;
33357;SDS011;19717;42.614;23.418;2022-07-29T09:25:03;3.42;;;3.13;;
33357;SDS011;19717;42.614;23.418;2022-07-29T09:27:29;4.00;;;3.40;;
33357;SDS011;19717;42.614;23.418;2022-07-29T09:29:59;4.47;;;3.50;;
33357;SDS011;19717;42.614;23.418;2022-07-29T09:32:26;3.83;;;3.40;;
33357;SDS011;19717;42.614;23.418;2022-07-29T09:37:37;3.67;;;3.35;;
33357;SDS011;19717;42.614;23.418;2022-07-29T09:40:10;3.80;;;3.33;;
33357;SDS011;19717;42.614;23.418;2022-07-29T09:42:37;3.55;;;3.25;;
33357;SDS011;19717;42.614;23.418;2022-07-29T09:45:03;3.63;;;3.33;;
33357;SDS011;19717;42.614;23.418;2022-07-29T09:50:07;5.07;;;3.58;;
33357;SDS011;19717;42.614;23.418;2022-07-29T09:52:41;4.65;;;3.50;;
33357;SDS011;19717;42.614;23.418;2022-07-29T09:55:10;3.92;;;3.45;;
33357;SDS011;19717;42.614;23.418;2022-07-29T09:57:36;4.35;;;3.38;;
33357;SDS011;19717;42.614;23.418;2022-07-29T10:02:29;4.15;;;3.70;;
33357;SDS011;19717;42.614;23.418;2022-07-29T10:04:55;4.43;;;3.35;;
33357;SDS011;19717;42.614;23.418;2022-07-29T10:07:21;3.38;;;3.08;;
33357;SDS011;19717;42.614;23.418;2022-07-29T10:09:55;4.18;;;3.50;;
33357;SDS011;19717;42.614;23.418;2022-07-29T10:12:21;6.97;;;3.10;;
33357;SDS011;19717;42.614;23.418;2022-07-29T10:14:48;3.05;;;2.67;;
33357;SDS011;19717;42.614;23.418;2022-07-29T10:17:14;3.88;;;3.47;;
33357;SDS011;19717;42.614;23.418;2022-07-29T10:19:41;3.40;;;3.10;;
33357;SDS011;19717;42.614;23.418;2022-07-29T10:22:08;3.75;;;2.97;;
33357;SDS011;19717;42.614;23.418;2022-07-29T10:24:35;4.10;;;3.00;;
33357;SDS011;19717;42.614;23.418;2022-07-29T10:27:02;3.10;;;2.80;;
33357;SDS011;19717;42.614;23.418;2022-07-29T10:29:29;3.28;;;2.97;;
33357;SDS011;19717;42.614;23.418;2022-07-29T10:32:16;4.97;;;3.28;;
33357;SDS011;19717;42.614;23.418;2022-07-29T10:42:22;3.45;;;2.80;;
33357;SDS011;19717;42.614;23.418;2022-07-29T10:44:49;3.05;;;2.75;;
33357;SDS011;19717;42.614;23.418;2022-07-29T10:47:22;4.57;;;2.70;;
33357;SDS011;19717;42.614;23.418;2022-07-29T10:49:58;3.72;;;2.83;;
33357;SDS011;19717;42.614;23.418;2022-07-29T10:52:36;3.38;;;3.08;;
33357;SDS011;19717;42.614;23.418;2022-07-29T10:55:30;5.82;;;3.13;;
33357;SDS011;19717;42.614;23.418;2022-07-29T10:58:40;3.20;;;2.90;;
33357;SDS011;19717;42.614;23.418;2022-07-29T11:00:50;3.65;;;3.35;;
33357;SDS011;19717;42.614;23.418;2022-07-29T11:06:01;3.15;;;2.85;;
33357;SDS011;19717;42.614;23.418;2022-07-29T11:08:27;4.82;;;3.58;;
33357;SDS011;19717;42.614;23.418;2022-07-29T11:16:11;3.38;;;3.08;;
33357;SDS011;19717;42.614;23.418;2022-07-29T11:21:34;3.25;;;2.72;;
33357;SDS011;19717;42.614;23.418;2022-07-29T11:24:13;3.65;;;3.35;;
33357;SDS011;19717;42.614;23.418;2022-07-29T11:26:40;4.25;;;3.20;;
33357;SDS011;19717;42.614;23.418;2022-07-29T11:29:15;4.15;;;2.95;;
33357;SDS011;19717;42.614;23.418;2022-07-29T11:31:43;4.13;;;3.72;;
33357;SDS011;19717;42.614;23.418;2022-07-29T11:39:28;3.30;;;3.00;;
33357;SDS011;19717;42.614;23.418;2022-07-29T11:42:15;2.97;;;2.70;;
33357;SDS011;19717;42.614;23.418;2022-07-29T11:44:56;2.63;;;2.42;;
33357;SDS011;19717;42.614;23.418;2022-07-29T11:47:22;3.67;;;3.00;;
33357;SDS011;19717;42.614;23.418;2022-07-29T11:49:49;3.83;;;3.42;;
33357;SDS011;19717;42.614;23.418;2022-07-29T11:52:19;4.57;;;3.80;;
33357;SDS011;19717;42.614;23.418;2022-07-29T11:54:46;4.05;;;3.50;;
33357;SDS011;19717;42.614;23.418;2022-07-29T11:57:14;3.25;;;2.95;;
33357;SDS011;19717;42.614;23.418;2022-07-29T11:59:42;3.92;;;3.50;;
33357;SDS011;19717;42.614;23.418;2022-07-29T12:02:09;3.33;;;3.03;;
33357;SDS011;19717;42.614;23.418;2022-07-29T12:04:51;3.67;;;3.22;;
33357;SDS011;19717;42.614;23.418;2022-07-29T12:07:17;3.92;;;3.53;;
33357;SDS011;19717;42.614;23.418;2022-07-29T12:09:53;3.25;;;2.95;;
33357;SDS011;19717;42.614;23.418;2022-07-29T12:12:19;3.20;;;2.90;;
33357;SDS011;19717;42.614;23.418;2022-07-29T12:14:45;3.47;;;3.17;;
33357;SDS011;19717;42.614;23.418;2022-07-29T12:17:31;4.00;;;3.20;;
33357;SDS011;19717;42.614;23.418;2022-07-29T12:19:58;5.10;;;3.90;;
33357;SDS011;19717;42.614;23.418;2022-07-29T12:22:29;7.38;;;4.10;;
33357;SDS011;19717;42.614;23.418;2022-07-29T12:25:00;4.40;;;4.00;;
33357;SDS011;19717;42.614;23.418;2022-07-29T12:30:00;4.68;;;3.75;;
33357;SDS011;19717;42.614;23.418;2022-07-29T12:34:58;4.93;;;4.03;;
33357;SDS011;19717;42.614;23.418;2022-07-29T12:37:24;4.78;;;4.05;;
33357;SDS011;19717;42.614;23.418;2022-07-29T12:39:50;4.75;;;4.15;;
33357;SDS011;19717;42.614;23.418;2022-07-29T12:42:17;4.55;;;3.83;;
33357;SDS011;19717;42.614;23.418;2022-07-29T12:44:49;7.43;;;3.60;;
33357;SDS011;19717;42.614;23.418;2022-07-29T12:47:17;3.72;;;3.42;;
33357;SDS011;19717;42.614;23.418;2022-07-29T12:49:44;4.43;;;3.65;;
33357;SDS011;19717;42.614;23.418;2022-07-29T12:52:23;4.78;;;3.80;;
33357;SDS011;19717;42.614;23.418;2022-07-29T12:54:49;3.83;;;3.50;;
33357;SDS011;19717;42.614;23.418;2022-07-29T12:57:15;3.80;;;3.50;;
33357;SDS011;19717;42.614;23.418;2022-07-29T12:59:41;4.10;;;3.42;;
33357;SDS011;19717;42.614;23.418;2022-07-29T13:02:19;4.18;;;3.60;;
33357;SDS011;19717;42.614;23.418;2022-07-29T13:04:54;4.47;;;4.00;;
33357;SDS011;19717;42.614;23.418;2022-07-29T13:07:23;3.90;;;3.50;;
33357;SDS011;19717;42.614;23.418;2022-07-29T13:09:50;3.85;;;3.53;;
33357;SDS011;19717;42.614;23.418;2022-07-29T13:12:16;3.53;;;3.22;;
33357;SDS011;19717;42.614;23.418;2022-07-29T13:14:49;4.25;;;3.85;;
33357;SDS011;19717;42.614;23.418;2022-07-29T13:17:16;4.25;;;3.85;;
33357;SDS011;19717;42.614;23.418;2022-07-29T13:19:47;4.22;;;3.50;;
33357;SDS011;19717;42.614;23.418;2022-07-29T13:22:15;3.80;;;3.47;;
33357;SDS011;19717;42.614;23.418;2022-07-29T13:24:45;3.60;;;3.30;;
33357;SDS011;19717;42.614;23.418;2022-07-29T13:27:13;3.72;;;3.35;;
33357;SDS011;19717;42.614;23.418;2022-07-29T13:29:39;7.55;;;3.40;;
33357;SDS011;19717;42.614;23.418;2022-07-29T13:32:05;3.25;;;2.95;;
33357;SDS011;19717;42.614;23.418;2022-07-29T13:34:32;5.40;;;3.72;;
33357;SDS011;19717;42.614;23.418;2022-07-29T13:36:58;4.78;;;3.17;;
33357;SDS011;19717;42.614;23.418;2022-07-29T13:39:24;3.92;;;3.53;;
33357;SDS011;19717;42.614;23.418;2022-07-29T13:41:50;4.68;;;3.45;;
33357;SDS011;19717;42.614;23.418;2022-07-29T13:44:17;3.42;;;3.13;;
33357;SDS011;19717;42.614;23.418;2022-07-29T13:46:43;3.85;;;3.55;;
33357;SDS011;19717;42.614;23.418;2022-07-29T13:49:09;9.30;;;3.72;;
33357;SDS011;19717;42.614;23.418;2022-07-29T13:51:36;3.72;;;3.25;;
33357;SDS011;19717;42.614;23.418;2022-07-29T13:54:02;4.18;;;3.20;;
33357;SDS011;19717;42.614;23.418;2022-07-29T13:56:28;3.75;;;3.35;;
33357;SDS011;19717;42.614;23.418;2022-07-29T13:58:54;3.38;;;2.95;;
33357;SDS011;19717;42.614;23.418;2022-07-29T14:01:21;4.40;;;3.30;;
33357;SDS011;19717;42.614;23.418;2022-07-29T14:03:47;4.68;;;3.38;;
33357;SDS011;19717;42.614;23.418;2022-07-29T14:06:13;3.55;;;3.10;;
33357;SDS011;19717;42.614;23.418;2022-07-29T14:08:39;5.03;;;3.50;;
33357;SDS011;19717;42.614;23.418;2022-07-29T14:11:05;5.05;;;3.35;;
33357;SDS011;19717;42.614;23.418;2022-07-29T14:13:31;4.18;;;3.47;;
33357;SDS011;19717;42.614;23.418;2022-07-29T14:15:57;3.47;;;3.03;;
33357;SDS011;19717;42.614;23.418;2022-07-29T14:18:23;3.45;;;3.15;;
33357;SDS011;19717;42.614;23.418;2022-07-29T14:20:50;3.88;;;3.50;;
33357;SDS011;19717;42.614;23.418;2022-07-29T14:23:16;3.53;;;3.22;;
33357;SDS011;19717;42.614;23.418;2022-07-29T14:25:42;3.90;;;3.40;;
33357;SDS011;19717;42.614;23.418;2022-07-29T14:28:08;4.40;;;3.70;;
33357;SDS011;19717;42.614;23.418;2022-07-29T14:30:34;7.57;;;4.07;;
33357;SDS011;19717;42.614;23.418;2022-07-29T14:33:00;3.55;;;3.25;;
33357;SDS011;19717;42.614;23.418;2022-07-29T14:35:26;4.22;;;3.83;;
33357;SDS011;19717;42.614;23.418;2022-07-29T14:37:53;4.72;;;4.00;;
33357;SDS011;19717;42.614;23.418;2022-07-29T14:40:19;6.00;;;3.88;;
33357;SDS011;19717;42.614;23.418;2022-07-29T14:42:45;4.85;;;4.00;;
33357;SDS011;19717;42.614;23.418;2022-07-29T14:45:11;4.35;;;3.58;;
33357;SDS011;19717;42.614;23.418;2022-07-29T14:47:37;4.20;;;3.53;;
33357;SDS011;19717;42.614;23.418;2022-07-29T14:50:04;3.88;;;3.45;;
33357;SDS011;19717;42.614;23.418;2022-07-29T14:52:30;4.63;;;3.80;;
33357;SDS011;19717;42.614;23.418;2022-07-29T14:54:57;3.55;;;2.95;;
33357;SDS011;19717;42.614;23.418;2022-07-29T14:57:23;3.70;;;3.30;;
33357;SDS011;19717;42.614;23.418;2022-07-29T14:59:49;5.15;;;3.05;;
33357;SDS011;19717;42.614;23.418;2022-07-29T15:02:15;3.75;;;3.33;;
33357;SDS011;19717;42.614;23.418;2022-07-29T15:04:41;4.28;;;3.15;;
33357;SDS011;19717;42.614;23.418;2022-07-29T15:07:09;5.88;;;4.60;;
33357;SDS011;19717;42.614;23.418;2022-07-29T15:09:35;5.63;;;3.50;;
33357;SDS011;19717;42.614;23.418;2022-07-29T15:12:01;3.20;;;2.90;;
33357;SDS011;19717;42.614;23.418;2022-07-29T15:14:28;4.10;;;3.22;;
33357;SDS011;19717;42.614;23.418;2022-07-29T15:16:54;3.30;;;3.00;;
33357;SDS011;19717;42.614;23.418;2022-07-29T15:19:20;3.55;;;3.00;;
33357;SDS011;19717;42.614;23.418;2022-07-29T15:21:46;3.67;;;3.05;;